sensor_id;sensor_type;location;lat;lon;timestamp;P1;durP1;ratioP1;P2;durP2;ratioP2
45232;SDS011;30969;51.052;17.056;2023-05-28T00:02:49;8.30;;;4.20;;
45232;SDS011;30969;51.052;17.056;2023-05-28T00:07:53;7.80;;;4.30;;
45232;SDS011;30969;51.052;17.056;2023-05-28T00:12:58;5.53;;;3.53;;
45232;SDS011;30969;51.052;17.056;2023-05-28T00:18:03;6.15;;;4.15;;
45232;SDS011;30969;51.052;17.056;2023-05-28T00:23:07;8.85;;;5.50;;
45232;SDS011;30969;51.052;17.056;2023-05-28T00:28:10;8.05;;;3.72;;
45232;SDS011;30969;51.052;17.056;2023-05-28T00:33:15;7.05;;;3.97;;
45232;SDS011;30969;51.052;17.056;2023-05-28T00:38:19;10.23;;;4.43;;
45232;SDS011;30969;51.052;17.056;2023-05-28T00:43:22;8.68;;;3.83;;
45232;SDS011;30969;51.052;17.056;2023-05-28T00:48:27;8.07;;;4.43;;
45232;SDS011;30969;51.052;17.056;2023-05-28T00:53:31;13.13;;;5.57;;
45232;SDS011;30969;51.052;17.056;2023-05-28T00:58:35;10.18;;;6.20;;
45232;SDS011;30969;51.052;17.056;2023-05-28T01:03:42;10.27;;;5.78;;
45232;SDS011;30969;51.052;17.056;2023-05-28T01:08:46;7.53;;;5.25;;
45232;SDS011;30969;51.052;17.056;2023-05-28T01:13:51;8.48;;;4.60;;
45232;SDS011;30969;51.052;17.056;2023-05-28T01:18:56;7.80;;;4.13;;
45232;SDS011;30969;51.052;17.056;2023-05-28T01:24:02;7.45;;;4.10;;
45232;SDS011;30969;51.052;17.056;2023-05-28T01:29:13;7.90;;;3.97;;
45232;SDS011;30969;51.052;17.056;2023-05-28T01:34:18;7.70;;;3.97;;
45232;SDS011;30969;51.052;17.056;2023-05-28T01:39:24;6.57;;;3.83;;
45232;SDS011;30969;51.052;17.056;2023-05-28T01:44:29;8.23;;;3.65;;
45232;SDS011;30969;51.052;17.056;2023-05-28T01:49:35;7.72;;;4.32;;
45232;SDS011;30969;51.052;17.056;2023-05-28T01:54:40;6.97;;;3.63;;
45232;SDS011;30969;51.052;17.056;2023-05-28T01:59:44;8.13;;;4.38;;
45232;SDS011;30969;51.052;17.056;2023-05-28T02:04:48;7.00;;;3.50;;
45232;SDS011;30969;51.052;17.056;2023-05-28T02:09:53;7.75;;;3.92;;
45232;SDS011;30969;51.052;17.056;2023-05-28T02:14:57;7.32;;;4.28;;
45232;SDS011;30969;51.052;17.056;2023-05-28T02:20:01;7.47;;;4.03;;
45232;SDS011;30969;51.052;17.056;2023-05-28T02:25:06;6.70;;;3.42;;
45232;SDS011;30969;51.052;17.056;2023-05-28T02:30:10;9.20;;;4.80;;
45232;SDS011;30969;51.052;17.056;2023-05-28T02:35:16;9.50;;;3.85;;
45232;SDS011;30969;51.052;17.056;2023-05-28T02:40:21;6.60;;;4.20;;
45232;SDS011;30969;51.052;17.056;2023-05-28T02:45:25;7.75;;;3.92;;
45232;SDS011;30969;51.052;17.056;2023-05-28T02:50:29;7.88;;;4.43;;
45232;SDS011;30969;51.052;17.056;2023-05-28T02:55:34;6.55;;;4.05;;
45232;SDS011;30969;51.052;17.056;2023-05-28T03:00:38;8.82;;;4.45;;
45232;SDS011;30969;51.052;17.056;2023-05-28T03:05:41;9.40;;;4.50;;
45232;SDS011;30969;51.052;17.056;2023-05-28T03:10:47;6.03;;;3.70;;
45232;SDS011;30969;51.052;17.056;2023-05-28T03:15:51;7.93;;;4.22;;
45232;SDS011;30969;51.052;17.056;2023-05-28T03:20:55;6.65;;;4.50;;
45232;SDS011;30969;51.052;17.056;2023-05-28T03:26:00;7.85;;;4.35;;
45232;SDS011;30969;51.052;17.056;2023-05-28T03:31:04;8.27;;;4.95;;
45232;SDS011;30969;51.052;17.056;2023-05-28T03:36:08;9.15;;;4.82;;
45232;SDS011;30969;51.052;17.056;2023-05-28T03:41:14;9.65;;;5.03;;
45232;SDS011;30969;51.052;17.056;2023-05-28T03:46:18;9.43;;;5.15;;
45232;SDS011;30969;51.052;17.056;2023-05-28T03:51:22;8.75;;;4.78;;
45232;SDS011;30969;51.052;17.056;2023-05-28T03:56:30;12.63;;;6.43;;
45232;SDS011;30969;51.052;17.056;2023-05-28T04:01:35;9.13;;;4.93;;
45232;SDS011;30969;51.052;17.056;2023-05-28T04:06:40;9.07;;;5.07;;
45232;SDS011;30969;51.052;17.056;2023-05-28T04:11:45;7.00;;;4.00;;
45232;SDS011;30969;51.052;17.056;2023-05-28T04:16:49;11.13;;;4.65;;
45232;SDS011;30969;51.052;17.056;2023-05-28T04:21:52;10.18;;;5.68;;
45232;SDS011;30969;51.052;17.056;2023-05-28T04:26:57;6.15;;;3.67;;
45232;SDS011;30969;51.052;17.056;2023-05-28T04:32:01;7.30;;;4.00;;
45232;SDS011;30969;51.052;17.056;2023-05-28T04:37:05;8.02;;;4.32;;
45232;SDS011;30969;51.052;17.056;2023-05-28T04:42:10;9.80;;;4.63;;
45232;SDS011;30969;51.052;17.056;2023-05-28T04:47:18;6.85;;;4.10;;
45232;SDS011;30969;51.052;17.056;2023-05-28T04:52:24;5.80;;;4.03;;
45232;SDS011;30969;51.052;17.056;2023-05-28T04:57:29;7.13;;;3.97;;
45232;SDS011;30969;51.052;17.056;2023-05-28T05:02:34;7.88;;;4.05;;
45232;SDS011;30969;51.052;17.056;2023-05-28T05:07:37;6.13;;;3.85;;
45232;SDS011;30969;51.052;17.056;2023-05-28T05:12:43;6.60;;;4.00;;
45232;SDS011;30969;51.052;17.056;2023-05-28T05:17:47;8.82;;;5.15;;
45232;SDS011;30969;51.052;17.056;2023-05-28T05:22:50;6.95;;;4.50;;
45232;SDS011;30969;51.052;17.056;2023-05-28T05:27:56;9.63;;;4.88;;
45232;SDS011;30969;51.052;17.056;2023-05-28T05:33:00;6.63;;;4.28;;
45232;SDS011;30969;51.052;17.056;2023-05-28T05:38:03;9.05;;;4.30;;
45232;SDS011;30969;51.052;17.056;2023-05-28T05:43:09;10.60;;;4.45;;
45232;SDS011;30969;51.052;17.056;2023-05-28T05:48:13;7.95;;;4.68;;
45232;SDS011;30969;51.052;17.056;2023-05-28T05:53:17;8.57;;;4.93;;
45232;SDS011;30969;51.052;17.056;2023-05-28T05:58:22;7.78;;;3.72;;
45232;SDS011;30969;51.052;17.056;2023-05-28T06:03:25;6.93;;;3.67;;
45232;SDS011;30969;51.052;17.056;2023-05-28T06:08:29;6.22;;;3.92;;
45232;SDS011;30969;51.052;17.056;2023-05-28T06:13:35;6.28;;;4.03;;
45232;SDS011;30969;51.052;17.056;2023-05-28T06:18:39;7.45;;;3.45;;
45232;SDS011;30969;51.052;17.056;2023-05-28T06:23:43;8.05;;;4.00;;
45232;SDS011;30969;51.052;17.056;2023-05-28T06:28:49;6.65;;;3.78;;
45232;SDS011;30969;51.052;17.056;2023-05-28T06:33:53;6.47;;;3.25;;
45232;SDS011;30969;51.052;17.056;2023-05-28T06:38:57;8.02;;;3.40;;
45232;SDS011;30969;51.052;17.056;2023-05-28T06:44:02;6.28;;;3.13;;
45232;SDS011;30969;51.052;17.056;2023-05-28T06:49:07;8.43;;;3.92;;
45232;SDS011;30969;51.052;17.056;2023-05-28T06:54:10;5.28;;;3.08;;
45232;SDS011;30969;51.052;17.056;2023-05-28T06:59:15;6.93;;;3.75;;
45232;SDS011;30969;51.052;17.056;2023-05-28T07:04:19;5.88;;;3.25;;
45232;SDS011;30969;51.052;17.056;2023-05-28T07:09:23;7.85;;;2.80;;
45232;SDS011;30969;51.052;17.056;2023-05-28T07:14:29;6.45;;;3.08;;
45232;SDS011;30969;51.052;17.056;2023-05-28T07:19:33;7.82;;;3.03;;
45232;SDS011;30969;51.052;17.056;2023-05-28T07:24:36;6.72;;;2.55;;
45232;SDS011;30969;51.052;17.056;2023-05-28T07:29:41;5.05;;;2.50;;
45232;SDS011;30969;51.052;17.056;2023-05-28T07:34:45;6.45;;;2.45;;
45232;SDS011;30969;51.052;17.056;2023-05-28T07:39:49;7.07;;;2.63;;
45232;SDS011;30969;51.052;17.056;2023-05-28T07:44:55;6.25;;;2.22;;
45232;SDS011;30969;51.052;17.056;2023-05-28T07:49:58;4.32;;;1.95;;
45232;SDS011;30969;51.052;17.056;2023-05-28T07:55:02;4.85;;;2.05;;
45232;SDS011;30969;51.052;17.056;2023-05-28T08:00:10;3.83;;;2.42;;
45232;SDS011;30969;51.052;17.056;2023-05-28T08:05:17;3.38;;;1.83;;
45232;SDS011;30969;51.052;17.056;2023-05-28T08:10:21;5.03;;;2.20;;
45232;SDS011;30969;51.052;17.056;2023-05-28T08:15:27;7.03;;;2.95;;
45232;SDS011;30969;51.052;17.056;2023-05-28T08:20:30;3.63;;;2.03;;
45232;SDS011;30969;51.052;17.056;2023-05-28T08:25:34;4.80;;;1.95;;
45232;SDS011;30969;51.052;17.056;2023-05-28T08:30:40;4.63;;;2.13;;
45232;SDS011;30969;51.052;17.056;2023-05-28T08:35:43;3.22;;;1.70;;
45232;SDS011;30969;51.052;17.056;2023-05-28T08:40:48;4.63;;;1.77;;
45232;SDS011;30969;51.052;17.056;2023-05-28T08:45:56;3.55;;;1.67;;
45232;SDS011;30969;51.052;17.056;2023-05-28T08:50:59;3.97;;;1.42;;
45232;SDS011;30969;51.052;17.056;2023-05-28T08:56:04;3.53;;;1.90;;
45232;SDS011;30969;51.052;17.056;2023-05-28T09:01:09;2.60;;;1.70;;
45232;SDS011;30969;51.052;17.056;2023-05-28T09:06:14;3.53;;;1.70;;
45232;SDS011;30969;51.052;17.056;2023-05-28T09:11:19;4.20;;;2.10;;
45232;SDS011;30969;51.052;17.056;2023-05-28T09:16:26;4.68;;;2.70;;
45232;SDS011;30969;51.052;17.056;2023-05-28T09:21:29;3.58;;;1.50;;
45232;SDS011;30969;51.052;17.056;2023-05-28T09:26:34;2.75;;;1.50;;
45232;SDS011;30969;51.052;17.056;2023-05-28T09:31:39;4.40;;;2.00;;
45232;SDS011;30969;51.052;17.056;2023-05-28T09:36:43;3.50;;;1.85;;
45232;SDS011;30969;51.052;17.056;2023-05-28T09:41:47;4.57;;;1.60;;
45232;SDS011;30969;51.052;17.056;2023-05-28T09:47:07;5.53;;;1.63;;
45232;SDS011;30969;51.052;17.056;2023-05-28T09:52:16;2.35;;;1.35;;
45232;SDS011;30969;51.052;17.056;2023-05-28T09:57:23;5.68;;;1.60;;
45232;SDS011;30969;51.052;17.056;2023-05-28T10:07:58;5.03;;;1.52;;
45232;SDS011;30969;51.052;17.056;2023-05-28T10:13:03;1.92;;;1.30;;
45232;SDS011;30969;51.052;17.056;2023-05-28T10:18:10;5.85;;;1.60;;
45232;SDS011;30969;51.052;17.056;2023-05-28T10:23:16;3.03;;;1.30;;
45232;SDS011;30969;51.052;17.056;2023-05-28T10:28:21;4.30;;;1.55;;
45232;SDS011;30969;51.052;17.056;2023-05-28T10:33:27;2.58;;;1.35;;
45232;SDS011;30969;51.052;17.056;2023-05-28T10:38:31;3.90;;;1.42;;
45232;SDS011;30969;51.052;17.056;2023-05-28T10:43:45;4.03;;;1.55;;
45232;SDS011;30969;51.052;17.056;2023-05-28T10:49:08;5.88;;;1.20;;
45232;SDS011;30969;51.052;17.056;2023-05-28T10:54:15;3.95;;;1.83;;
45232;SDS011;30969;51.052;17.056;2023-05-28T10:59:35;2.28;;;1.30;;
45232;SDS011;30969;51.052;17.056;2023-05-28T11:04:41;3.00;;;1.90;;
45232;SDS011;30969;51.052;17.056;2023-05-28T11:09:49;3.38;;;1.27;;
45232;SDS011;30969;51.052;17.056;2023-05-28T11:14:54;4.35;;;1.27;;
45232;SDS011;30969;51.052;17.056;2023-05-28T11:19:59;3.83;;;1.55;;
45232;SDS011;30969;51.052;17.056;2023-05-28T11:25:04;3.38;;;1.42;;
45232;SDS011;30969;51.052;17.056;2023-05-28T11:30:10;1.90;;;1.27;;
45232;SDS011;30969;51.052;17.056;2023-05-28T11:35:16;2.67;;;1.38;;
45232;SDS011;30969;51.052;17.056;2023-05-28T11:40:20;1.90;;;1.05;;
45232;SDS011;30969;51.052;17.056;2023-05-28T11:45:23;1.95;;;1.20;;
45232;SDS011;30969;51.052;17.056;2023-05-28T11:50:28;2.15;;;1.30;;
45232;SDS011;30969;51.052;17.056;2023-05-28T11:55:32;2.90;;;1.55;;
45232;SDS011;30969;51.052;17.056;2023-05-28T12:00:36;2.28;;;1.50;;
45232;SDS011;30969;51.052;17.056;2023-05-28T12:05:41;3.35;;;1.80;;
45232;SDS011;30969;51.052;17.056;2023-05-28T12:10:45;3.92;;;1.45;;
45232;SDS011;30969;51.052;17.056;2023-05-28T12:15:49;2.50;;;1.20;;
45232;SDS011;30969;51.052;17.056;2023-05-28T12:20:55;2.53;;;1.23;;
45232;SDS011;30969;51.052;17.056;2023-05-28T12:26:01;3.03;;;1.50;;
45232;SDS011;30969;51.052;17.056;2023-05-28T12:31:06;6.35;;;1.85;;
45232;SDS011;30969;51.052;17.056;2023-05-28T12:36:11;4.30;;;1.38;;
45232;SDS011;30969;51.052;17.056;2023-05-28T12:41:15;3.97;;;1.95;;
45232;SDS011;30969;51.052;17.056;2023-05-28T12:46:19;3.17;;;1.35;;
45232;SDS011;30969;51.052;17.056;2023-05-28T12:51:24;3.17;;;1.50;;
45232;SDS011;30969;51.052;17.056;2023-05-28T12:56:27;3.35;;;1.25;;
45232;SDS011;30969;51.052;17.056;2023-05-28T13:01:33;3.08;;;1.60;;
45232;SDS011;30969;51.052;17.056;2023-05-28T13:06:38;4.65;;;1.70;;
45232;SDS011;30969;51.052;17.056;2023-05-28T13:11:42;4.32;;;2.03;;
45232;SDS011;30969;51.052;17.056;2023-05-28T13:16:46;2.85;;;1.48;;
45232;SDS011;30969;51.052;17.056;2023-05-28T13:21:52;2.95;;;1.48;;
45232;SDS011;30969;51.052;17.056;2023-05-28T13:26:56;4.13;;;1.90;;
45232;SDS011;30969;51.052;17.056;2023-05-28T13:32:00;2.90;;;1.80;;
45232;SDS011;30969;51.052;17.056;2023-05-28T13:37:06;2.33;;;1.48;;
45232;SDS011;30969;51.052;17.056;2023-05-28T13:42:10;3.30;;;1.98;;
45232;SDS011;30969;51.052;17.056;2023-05-28T13:47:14;2.88;;;1.80;;
45232;SDS011;30969;51.052;17.056;2023-05-28T13:52:20;5.85;;;2.97;;
45232;SDS011;30969;51.052;17.056;2023-05-28T13:57:27;5.97;;;2.97;;
45232;SDS011;30969;51.052;17.056;2023-05-28T14:02:31;3.15;;;1.85;;
45232;SDS011;30969;51.052;17.056;2023-05-28T14:07:36;4.35;;;1.60;;
45232;SDS011;30969;51.052;17.056;2023-05-28T14:12:40;4.38;;;2.53;;
45232;SDS011;30969;51.052;17.056;2023-05-28T14:17:43;2.88;;;1.70;;
45232;SDS011;30969;51.052;17.056;2023-05-28T14:22:49;4.47;;;1.50;;
45232;SDS011;30969;51.052;17.056;2023-05-28T14:27:53;2.20;;;1.50;;
45232;SDS011;30969;51.052;17.056;2023-05-28T14:33:11;2.40;;;1.40;;
45232;SDS011;30969;51.052;17.056;2023-05-28T14:38:16;2.63;;;1.55;;
45232;SDS011;30969;51.052;17.056;2023-05-28T14:43:20;3.28;;;1.58;;
45232;SDS011;30969;51.052;17.056;2023-05-28T14:48:23;9.40;;;1.30;;
45232;SDS011;30969;51.052;17.056;2023-05-28T14:53:28;3.83;;;1.30;;
45232;SDS011;30969;51.052;17.056;2023-05-28T14:58:32;3.97;;;1.48;;
45232;SDS011;30969;51.052;17.056;2023-05-28T15:03:35;2.58;;;1.50;;
45232;SDS011;30969;51.052;17.056;2023-05-28T15:08:40;3.08;;;1.83;;
45232;SDS011;30969;51.052;17.056;2023-05-28T15:13:45;3.90;;;1.52;;
45232;SDS011;30969;51.052;17.056;2023-05-28T15:18:49;1.80;;;1.40;;
45232;SDS011;30969;51.052;17.056;2023-05-28T15:23:55;4.25;;;1.45;;
45232;SDS011;30969;51.052;17.056;2023-05-28T15:28:59;3.30;;;1.48;;
45232;SDS011;30969;51.052;17.056;2023-05-28T15:34:04;3.40;;;1.33;;
45232;SDS011;30969;51.052;17.056;2023-05-28T15:39:09;5.30;;;3.65;;
45232;SDS011;30969;51.052;17.056;2023-05-28T15:44:13;3.42;;;1.90;;
45232;SDS011;30969;51.052;17.056;2023-05-28T15:49:17;3.03;;;1.63;;
45232;SDS011;30969;51.052;17.056;2023-05-28T15:54:22;2.55;;;1.50;;
45232;SDS011;30969;51.052;17.056;2023-05-28T15:59:26;2.70;;;1.35;;
45232;SDS011;30969;51.052;17.056;2023-05-28T16:04:30;3.17;;;1.13;;
45232;SDS011;30969;51.052;17.056;2023-05-28T16:09:36;2.60;;;1.33;;
45232;SDS011;30969;51.052;17.056;2023-05-28T16:14:42;4.18;;;1.50;;
45232;SDS011;30969;51.052;17.056;2023-05-28T16:19:47;2.92;;;1.63;;
45232;SDS011;30969;51.052;17.056;2023-05-28T16:24:52;1.85;;;1.35;;
45232;SDS011;30969;51.052;17.056;2023-05-28T16:29:56;1.75;;;1.20;;
45232;SDS011;30969;51.052;17.056;2023-05-28T16:35:01;3.38;;;1.90;;
45232;SDS011;30969;51.052;17.056;2023-05-28T16:40:08;3.75;;;1.70;;
45232;SDS011;30969;51.052;17.056;2023-05-28T16:45:12;2.63;;;1.65;;
45232;SDS011;30969;51.052;17.056;2023-05-28T16:50:16;3.15;;;1.52;;
45232;SDS011;30969;51.052;17.056;2023-05-28T16:55:22;2.00;;;1.10;;
45232;SDS011;30969;51.052;17.056;2023-05-28T17:00:26;2.75;;;1.50;;
45232;SDS011;30969;51.052;17.056;2023-05-28T17:05:30;4.05;;;1.50;;
45232;SDS011;30969;51.052;17.056;2023-05-28T17:10:35;4.43;;;1.45;;
45232;SDS011;30969;51.052;17.056;2023-05-28T17:15:38;4.35;;;1.55;;
45232;SDS011;30969;51.052;17.056;2023-05-28T17:20:42;3.63;;;1.70;;
45232;SDS011;30969;51.052;17.056;2023-05-28T17:25:47;3.55;;;2.50;;
45232;SDS011;30969;51.052;17.056;2023-05-28T17:30:51;3.38;;;1.92;;
45232;SDS011;30969;51.052;17.056;2023-05-28T17:35:54;4.00;;;1.40;;
45232;SDS011;30969;51.052;17.056;2023-05-28T17:41:00;8.02;;;2.33;;
45232;SDS011;30969;51.052;17.056;2023-05-28T17:46:03;6.05;;;2.45;;
45232;SDS011;30969;51.052;17.056;2023-05-28T17:51:07;3.25;;;1.60;;
45232;SDS011;30969;51.052;17.056;2023-05-28T17:56:12;4.15;;;1.58;;
45232;SDS011;30969;51.052;17.056;2023-05-28T18:01:16;7.57;;;2.03;;
45232;SDS011;30969;51.052;17.056;2023-05-28T18:06:20;3.10;;;1.50;;
45232;SDS011;30969;51.052;17.056;2023-05-28T18:11:24;6.63;;;2.28;;
45232;SDS011;30969;51.052;17.056;2023-05-28T18:16:28;2.28;;;1.70;;
45232;SDS011;30969;51.052;17.056;2023-05-28T18:21:32;4.15;;;2.80;;
45232;SDS011;30969;51.052;17.056;2023-05-28T18:26:38;3.85;;;2.15;;
45232;SDS011;30969;51.052;17.056;2023-05-28T18:31:42;2.67;;;1.83;;
45232;SDS011;30969;51.052;17.056;2023-05-28T18:36:48;3.55;;;1.70;;
45232;SDS011;30969;51.052;17.056;2023-05-28T18:41:53;3.53;;;2.17;;
45232;SDS011;30969;51.052;17.056;2023-05-28T18:46:56;3.20;;;2.20;;
45232;SDS011;30969;51.052;17.056;2023-05-28T18:52:00;7.53;;;4.15;;
45232;SDS011;30969;51.052;17.056;2023-05-28T18:57:05;9.35;;;4.78;;
45232;SDS011;30969;51.052;17.056;2023-05-28T19:02:10;10.85;;;4.13;;
45232;SDS011;30969;51.052;17.056;2023-05-28T19:07:13;6.28;;;2.63;;
45232;SDS011;30969;51.052;17.056;2023-05-28T19:12:20;5.50;;;2.40;;
45232;SDS011;30969;51.052;17.056;2023-05-28T19:17:24;7.75;;;2.95;;
45232;SDS011;30969;51.052;17.056;2023-05-28T19:22:28;7.68;;;3.28;;
45232;SDS011;30969;51.052;17.056;2023-05-28T19:27:35;11.07;;;6.25;;
45232;SDS011;30969;51.052;17.056;2023-05-28T19:32:40;9.57;;;4.63;;
45232;SDS011;30969;51.052;17.056;2023-05-28T19:37:44;7.95;;;4.47;;
45232;SDS011;30969;51.052;17.056;2023-05-28T19:42:52;12.55;;;4.78;;
45232;SDS011;30969;51.052;17.056;2023-05-28T19:47:56;9.18;;;4.57;;
45232;SDS011;30969;51.052;17.056;2023-05-28T19:53:00;8.00;;;3.80;;
45232;SDS011;30969;51.052;17.056;2023-05-28T19:58:06;8.43;;;3.60;;
45232;SDS011;30969;51.052;17.056;2023-05-28T20:03:10;9.48;;;4.00;;
45232;SDS011;30969;51.052;17.056;2023-05-28T20:08:15;6.55;;;3.90;;
45232;SDS011;30969;51.052;17.056;2023-05-28T20:13:21;6.53;;;4.55;;
45232;SDS011;30969;51.052;17.056;2023-05-28T20:18:27;13.82;;;7.85;;
45232;SDS011;30969;51.052;17.056;2023-05-28T20:23:31;8.73;;;4.55;;
45232;SDS011;30969;51.052;17.056;2023-05-28T20:28:36;7.00;;;4.22;;
45232;SDS011;30969;51.052;17.056;2023-05-28T20:33:40;9.50;;;6.00;;
45232;SDS011;30969;51.052;17.056;2023-05-28T20:38:43;10.10;;;6.20;;
45232;SDS011;30969;51.052;17.056;2023-05-28T20:43:52;12.85;;;6.68;;
45232;SDS011;30969;51.052;17.056;2023-05-28T20:48:56;14.68;;;9.20;;
45232;SDS011;30969;51.052;17.056;2023-05-28T20:53:59;18.77;;;11.93;;
45232;SDS011;30969;51.052;17.056;2023-05-28T20:59:06;14.68;;;9.27;;
45232;SDS011;30969;51.052;17.056;2023-05-28T21:04:10;11.70;;;7.25;;
45232;SDS011;30969;51.052;17.056;2023-05-28T21:09:14;15.15;;;7.10;;
45232;SDS011;30969;51.052;17.056;2023-05-28T21:14:19;10.15;;;5.93;;
45232;SDS011;30969;51.052;17.056;2023-05-28T21:19:23;11.43;;;5.93;;
45232;SDS011;30969;51.052;17.056;2023-05-28T21:24:26;12.30;;;5.65;;
45232;SDS011;30969;51.052;17.056;2023-05-28T21:29:32;12.38;;;6.00;;
45232;SDS011;30969;51.052;17.056;2023-05-28T21:34:35;13.32;;;6.45;;
45232;SDS011;30969;51.052;17.056;2023-05-28T21:39:39;15.90;;;6.68;;
45232;SDS011;30969;51.052;17.056;2023-05-28T21:44:44;14.27;;;6.22;;
45232;SDS011;30969;51.052;17.056;2023-05-28T21:49:47;15.00;;;8.25;;
45232;SDS011;30969;51.052;17.056;2023-05-28T21:54:51;16.15;;;9.23;;
45232;SDS011;30969;51.052;17.056;2023-05-28T21:59:57;9.52;;;5.32;;
45232;SDS011;30969;51.052;17.056;2023-05-28T22:05:00;12.52;;;5.80;;
45232;SDS011;30969;51.052;17.056;2023-05-28T22:10:07;7.65;;;4.88;;
45232;SDS011;30969;51.052;17.056;2023-05-28T22:15:13;14.77;;;5.95;;
45232;SDS011;30969;51.052;17.056;2023-05-28T22:20:17;16.45;;;6.90;;
45232;SDS011;30969;51.052;17.056;2023-05-28T22:25:29;16.00;;;6.50;;
45232;SDS011;30969;51.052;17.056;2023-05-28T22:30:34;13.48;;;5.63;;
45232;SDS011;30969;51.052;17.056;2023-05-28T22:35:37;14.15;;;7.80;;
45232;SDS011;30969;51.052;17.056;2023-05-28T22:40:41;10.35;;;4.93;;
45232;SDS011;30969;51.052;17.056;2023-05-28T22:45:46;8.63;;;4.05;;
45232;SDS011;30969;51.052;17.056;2023-05-28T22:50:52;8.48;;;3.33;;
45232;SDS011;30969;51.052;17.056;2023-05-28T22:55:56;9.32;;;4.50;;
45232;SDS011;30969;51.052;17.056;2023-05-28T23:01:01;10.93;;;4.85;;
45232;SDS011;30969;51.052;17.056;2023-05-28T23:06:08;13.80;;;6.10;;
45232;SDS011;30969;51.052;17.056;2023-05-28T23:11:16;9.48;;;4.30;;
45232;SDS011;30969;51.052;17.056;2023-05-28T23:16:21;9.00;;;4.35;;
45232;SDS011;30969;51.052;17.056;2023-05-28T23:21:25;8.27;;;4.20;;
45232;SDS011;30969;51.052;17.056;2023-05-28T23:26:29;8.60;;;4.18;;
45232;SDS011;30969;51.052;17.056;2023-05-28T23:31:34;9.48;;;4.47;;
45232;SDS011;30969;51.052;17.056;2023-05-28T23:36:38;9.48;;;4.22;;
45232;SDS011;30969;51.052;17.056;2023-05-28T23:41:42;7.40;;;4.03;;
45232;SDS011;30969;51.052;17.056;2023-05-28T23:46:47;8.63;;;4.07;;
45232;SDS011;30969;51.052;17.056;2023-05-28T23:51:51;8.18;;;3.70;;
45232;SDS011;30969;51.052;17.056;2023-05-28T23:56:54;5.97;;;3.58;;
